Time;durP1;ratioP1;P1;durP2;ratioP2;P2;SDS_P1;SDS_P2;PMS_P1;PMS_P2;Temp;Humidity;BMP_temperature;BMP_pressure;BME280_temperature;BME280_humidity;BME280_pressure;Samples;Min_cycle;Max_cycle;Signal;HPM_P1;HPM_P2
2020/12/08 00:01:16;;;;;;;31.15;16.02;;;;;;;;;;5048957;28;20605;-73
2020/12/08 00:03:41;;;;;;;30.20;13.88;;;;;;;;;;5049114;28;20057;-74
2020/12/08 00:06:07;;;;;;;29.40;13.27;;;;;;;;;;5049246;28;20021;-75
2020/12/08 00:08:32;;;;;;;25.10;13.75;;;;;;;;;;5049781;28;20401;-75
2020/12/08 00:10:57;;;;;;;34.97;14.00;;;;;;;;;;5048903;28;20020;-72
2020/12/08 00:13:22;;;;;;;27.92;13.15;;;;;;;;;;5049888;28;20033;-75
2020/12/08 00:15:48;;;;;;;29.67;14.27;;;;;;;;;;5031790;28;20393;-74
2020/12/08 00:18:13;;;;;;;29.83;14.65;;;;;;;;;;5048951;28;20270;-74
2020/12/08 00:20:38;;;;;;;32.75;15.98;;;;;;;;;;5053372;28;20036;-74
2020/12/08 00:23:03;;;;;;;35.22;15.55;;;;;;;;;;5048708;28;20009;-73
2020/12/08 00:25:28;;;;;;;38.80;16.75;;;;;;;;;;5049352;28;20116;-74
2020/12/08 00:27:53;;;;;;;30.55;14.23;;;;;;;;;;5049509;28;20064;-75
2020/12/08 00:30:21;;;;;;;32.95;15.60;;;;;;;;;;5048097;28;20033;-74
2020/12/08 00:32:46;;;;;;;34.78;15.23;;;;;;;;;;5046027;28;20112;-74
2020/12/08 00:35:12;;;;;;;32.90;15.55;;;;;;;;;;5044166;28;20557;-74
2020/12/08 00:37:41;;;;;;;35.10;15.88;;;;;;;;;;5048030;28;20017;-74
2020/12/08 00:40:06;;;;;;;35.90;16.88;;;;;;;;;;5048384;28;20025;-71
2020/12/08 00:42:31;;;;;;;39.05;17.05;;;;;;;;;;5053813;28;20024;-75
2020/12/08 00:44:56;;;;;;;38.30;17.42;;;;;;;;;;5048999;28;20136;-73
2020/12/08 00:47:21;;;;;;;31.95;15.20;;;;;;;;;;5049474;28;20029;-75
2020/12/08 00:49:47;;;;;;;31.25;15.25;;;;;;;;;;5049818;28;20067;-75
2020/12/08 00:52:12;;;;;;;33.55;17.05;;;;;;;;;;5052975;28;20032;-75
2020/12/08 00:54:37;;;;;;;33.72;15.82;;;;;;;;;;5030388;28;20025;-75
2020/12/08 00:57:02;;;;;;;39.35;18.10;;;;;;;;;;5053242;28;20036;-75
2020/12/08 00:59:28;;;;;;;41.85;17.60;;;;;;;;;;5054424;28;20024;-75
2020/12/08 01:01:53;;;;;;;32.28;16.05;;;;;;;;;;5033229;28;20057;-75
2020/12/08 01:04:18;;;;;;;33.47;16.75;;;;;;;;;;5052882;28;20067;-75
2020/12/08 01:06:43;;;;;;;32.97;16.10;;;;;;;;;;5052778;28;20032;-73
2020/12/08 01:09:08;;;;;;;33.13;15.88;;;;;;;;;;5051993;28;20021;-75
2020/12/08 01:11:40;;;;;;;34.78;17.58;;;;;;;;;;5052889;28;20021;-74
2020/12/08 01:14:05;;;;;;;47.17;17.80;;;;;;;;;;5053847;28;20032;-74
2020/12/08 01:16:30;;;;;;;39.10;17.63;;;;;;;;;;5031668;28;20025;-75
2020/12/08 01:18:56;;;;;;;38.28;18.35;;;;;;;;;;5048308;28;20158;-74
2020/12/08 01:21:21;;;;;;;37.00;17.63;;;;;;;;;;5053135;28;20025;-75
2020/12/08 01:23:46;;;;;;;34.55;17.30;;;;;;;;;;5050359;28;20491;-75
2020/12/08 01:26:18;;;;;;;41.45;17.80;;;;;;;;;;5052065;28;20083;-75
2020/12/08 01:28:43;;;;;;;32.30;16.17;;;;;;;;;;5052270;28;20104;-76
2020/12/08 01:31:09;;;;;;;37.23;16.30;;;;;;;;;;5050915;28;20100;-75
2020/12/08 01:33:34;;;;;;;41.50;20.02;;;;;;;;;;5052550;28;20271;-75
2020/12/08 01:35:59;;;;;;;41.63;19.10;;;;;;;;;;5051887;28;20422;-75
2020/12/08 01:38:24;;;;;;;36.72;16.80;;;;;;;;;;5052011;28;20162;-75
2020/12/08 01:40:53;;;;;;;35.63;17.33;;;;;;;;;;5073162;22;20033;-67
2020/12/08 01:43:18;;;;;;;34.70;15.95;;;;;;;;;;5051931;28;20017;-65
2020/12/08 01:45:43;;;;;;;40.00;18.60;;;;;;;;;;5052445;28;20393;-66
2020/12/08 01:48:08;;;;;;;42.65;18.45;;;;;;;;;;5051231;28;20262;-66
2020/12/08 01:50:33;;;;;;;49.45;20.42;;;;;;;;;;5050706;28;20381;-66
2020/12/08 01:52:59;;;;;;;37.38;17.35;;;;;;;;;;5051510;28;20105;-69
2020/12/08 01:55:24;;;;;;;36.42;17.20;;;;;;;;;;5051838;28;20389;-65
2020/12/08 01:57:49;;;;;;;45.95;20.40;;;;;;;;;;5034389;28;20017;-66
2020/12/08 02:00:15;;;;;;;39.70;18.50;;;;;;;;;;5049920;28;20056;-65
2020/12/08 02:02:40;;;;;;;39.30;18.87;;;;;;;;;;5052076;28;20268;-68
2020/12/08 02:05:05;;;;;;;44.88;19.83;;;;;;;;;;5052422;28;20350;-65
2020/12/08 02:07:30;;;;;;;46.53;20.50;;;;;;;;;;5030026;28;20021;-66
2020/12/08 02:09:56;;;;;;;45.65;20.83;;;;;;;;;;5056730;28;20032;-67
2020/12/08 02:12:21;;;;;;;48.13;20.20;;;;;;;;;;5051733;28;20488;-66
2020/12/08 02:14:46;;;;;;;43.65;20.65;;;;;;;;;;5048830;28;20116;-65
2020/12/08 02:17:11;;;;;;;49.63;21.92;;;;;;;;;;5051650;28;20028;-65
2020/12/08 02:19:36;;;;;;;50.03;22.60;;;;;;;;;;5046815;28;20385;-65
2020/12/08 02:22:02;;;;;;;45.60;21.67;;;;;;;;;;5050363;28;20264;-66
2020/12/08 02:24:27;;;;;;;50.17;22.08;;;;;;;;;;5051812;28;20486;-66
2020/12/08 02:26:52;;;;;;;47.13;20.07;;;;;;;;;;5050991;28;20474;-66
2020/12/08 02:29:17;;;;;;;44.22;20.88;;;;;;;;;;5049471;28;20272;-65
2020/12/08 02:31:42;;;;;;;43.45;21.13;;;;;;;;;;5050757;28;20036;-67
2020/12/08 02:34:08;;;;;;;45.35;21.15;;;;;;;;;;5054194;28;20102;-66
2020/12/08 02:36:33;;;;;;;46.83;20.70;;;;;;;;;;5051817;28;20017;-65
2020/12/08 02:38:58;;;;;;;48.17;21.67;;;;;;;;;;5050798;28;20017;-69
2020/12/08 02:41:24;;;;;;;41.40;21.13;;;;;;;;;;5051885;28;20013;-66
2020/12/08 02:43:51;;;;;;;41.10;20.95;;;;;;;;;;5051196;28;20448;-65
2020/12/08 02:46:17;;;;;;;37.60;15.43;;;;;;;;;;5046684;28;20032;-68
2020/12/08 02:48:42;;;;;;;43.78;21.15;;;;;;;;;;5050890;28;20017;-66
2020/12/08 02:51:07;;;;;;;45.63;19.30;;;;;;;;;;5050472;28;20056;-67
2020/12/08 02:53:32;;;;;;;44.08;21.80;;;;;;;;;;5047201;28;20271;-66
2020/12/08 02:55:57;;;;;;;37.70;19.90;;;;;;;;;;5050707;28;20079;-66
2020/12/08 02:58:22;;;;;;;45.17;22.37;;;;;;;;;;5051640;28;20035;-66
2020/12/08 03:00:49;;;;;;;45.08;21.20;;;;;;;;;;5049978;28;20282;-65
2020/12/08 03:03:14;;;;;;;40.30;20.17;;;;;;;;;;5050775;28;20103;-65
2020/12/08 03:05:39;;;;;;;46.85;21.52;;;;;;;;;;5050606;28;20100;-67
2020/12/08 03:08:04;;;;;;;41.40;20.33;;;;;;;;;;5050246;28;20175;-65
2020/12/08 03:10:29;;;;;;;43.60;19.58;;;;;;;;;;5050418;28;20283;-67
2020/12/08 03:12:54;;;;;;;42.80;22.73;;;;;;;;;;5050193;28;20133;-66
2020/12/08 03:15:19;;;;;;;41.50;19.50;;;;;;;;;;5047306;28;20024;-68
2020/12/08 03:17:45;;;;;;;44.67;20.70;;;;;;;;;;5046609;28;20029;-66
2020/12/08 03:20:10;;;;;;;39.95;20.30;;;;;;;;;;5049700;28;20424;-67
2020/12/08 03:22:36;;;;;;;38.58;20.00;;;;;;;;;;5049705;28;20041;-67
2020/12/08 03:25:02;;;;;;;40.53;20.77;;;;;;;;;;5050610;28;20430;-67
2020/12/08 03:27:27;;;;;;;38.35;20.45;;;;;;;;;;5046081;28;20025;-67
2020/12/08 03:29:52;;;;;;;37.30;18.47;;;;;;;;;;5048783;28;20025;-67
2020/12/08 03:32:17;;;;;;;41.72;19.83;;;;;;;;;;5049324;28;20264;-67
2020/12/08 03:34:42;;;;;;;40.33;20.70;;;;;;;;;;5046095;28;20162;-66
2020/12/08 03:37:08;;;;;;;39.53;20.27;;;;;;;;;;5049998;28;20031;-65
2020/12/08 03:39:33;;;;;;;35.22;19.02;;;;;;;;;;5049534;28;20251;-66
2020/12/08 03:42:02;;;;;;;42.53;20.00;;;;;;;;;;5049807;28;20024;-66
2020/12/08 03:44:28;;;;;;;45.45;21.35;;;;;;;;;;5049155;28;20055;-67
2020/12/08 03:46:55;;;;;;;39.35;20.08;;;;;;;;;;5048831;28;20400;-66
2020/12/08 03:49:25;;;;;;;42.05;19.20;;;;;;;;;;5049581;28;20048;-66
2020/12/08 03:51:51;;;;;;;;;;;;;;;;;;5049912;28;20083;-67
2020/12/08 03:54:16;;;;;;;36.85;19.20;;;;;;;;;;5049932;28;19908;-65
2020/12/08 03:56:43;;;;;;;43.37;19.40;;;;;;;;;;5049794;28;20029;-66
2020/12/08 03:59:08;;;;;;;35.53;17.73;;;;;;;;;;5049371;28;20262;-65
2020/12/08 04:01:33;;;;;;;40.20;19.60;;;;;;;;;;5048717;28;20043;-68
2020/12/08 04:03:59;;;;;;;41.42;19.63;;;;;;;;;;5049138;28;20305;-66
2020/12/08 04:06:24;;;;;;;38.63;18.93;;;;;;;;;;5049749;28;20016;-70
2020/12/08 04:08:49;;;;;;;38.05;18.48;;;;;;;;;;5049107;28;20251;-69
2020/12/08 04:11:15;;;;;;;41.33;19.93;;;;;;;;;;5049576;28;20020;-66
2020/12/08 04:13:40;;;;;;;37.47;18.35;;;;;;;;;;5045074;28;20283;-66
2020/12/08 04:16:10;;;;;;;40.72;20.90;;;;;;;;;;5049757;28;20036;-66
2020/12/08 04:18:35;;;;;;;42.92;19.80;;;;;;;;;;5050343;28;20021;-66
2020/12/08 04:21:01;;;;;;;40.65;20.27;;;;;;;;;;5046697;28;20028;-66
2020/12/08 04:23:26;;;;;;;37.92;17.80;;;;;;;;;;5040236;28;20017;-66
2020/12/08 04:25:51;;;;;;;37.67;18.93;;;;;;;;;;5048659;28;20114;-66
2020/12/08 04:28:16;;;;;;;38.45;19.63;;;;;;;;;;5048870;28;20259;-66
2020/12/08 04:30:41;;;;;;;38.97;19.40;;;;;;;;;;5049149;28;20032;-66
2020/12/08 04:33:07;;;;;;;39.20;19.87;;;;;;;;;;5049182;28;20033;-66
2020/12/08 04:35:32;;;;;;;41.20;20.80;;;;;;;;;;5048542;28;20283;-66
2020/12/08 04:37:57;;;;;;;47.22;23.33;;;;;;;;;;5050587;28;20025;-66
2020/12/08 04:40:23;;;;;;;44.85;20.70;;;;;;;;;;5049221;28;20075;-66
2020/12/08 04:42:49;;;;;;;39.78;20.50;;;;;;;;;;5045767;28;20396;-67
2020/12/08 04:45:14;;;;;;;46.03;22.13;;;;;;;;;;5048412;28;20079;-67
2020/12/08 04:47:42;;;;;;;43.47;19.48;;;;;;;;;;5049121;28;20397;-67
2020/12/08 04:50:07;;;;;;;40.92;21.23;;;;;;;;;;5045744;28;20021;-66
2020/12/08 04:52:32;;;;;;;42.40;21.17;;;;;;;;;;5047650;28;20028;-67
2020/12/08 04:54:57;;;;;;;45.35;20.90;;;;;;;;;;5046849;28;20021;-65
2020/12/08 04:57:23;;;;;;;42.03;20.50;;;;;;;;;;5049058;28;20013;-67
2020/12/08 04:59:48;;;;;;;46.15;21.52;;;;;;;;;;5048454;28;20021;-66
2020/12/08 05:02:13;;;;;;;45.53;22.10;;;;;;;;;;5043910;28;20105;-67
2020/12/08 05:04:38;;;;;;;47.77;22.97;;;;;;;;;;5031148;28;20025;-66
2020/12/08 05:07:04;;;;;;;44.73;22.40;;;;;;;;;;5047073;28;20256;-65
2020/12/08 05:09:29;;;;;;;50.08;21.73;;;;;;;;;;5048643;28;20282;-67
2020/12/08 05:11:56;;;;;;;41.35;21.55;;;;;;;;;;5048599;28;20059;-65
2020/12/08 05:14:21;;;;;;;42.05;20.98;;;;;;;;;;5048407;28;20428;-66
2020/12/08 05:16:46;;;;;;;42.67;20.75;;;;;;;;;;5048541;28;20035;-67
2020/12/08 05:19:11;;;;;;;40.20;21.17;;;;;;;;;;5047996;28;20155;-66
2020/12/08 05:21:54;;;;;;;40.85;20.48;;;;;;;;;;5047444;28;20966;-67
2020/12/08 05:24:22;;;;;;;43.58;21.25;;;;;;;;;;5046315;28;20108;-67
2020/12/08 05:26:55;;;;;;;45.15;20.85;;;;;;;;;;5045842;28;20493;-67
2020/12/08 05:29:20;;;;;;;41.75;20.98;;;;;;;;;;5043784;28;20017;-66
2020/12/08 05:31:45;;;;;;;39.15;19.92;;;;;;;;;;5048729;28;20683;-66
2020/12/08 05:34:11;;;;;;;35.83;18.40;;;;;;;;;;5047819;28;20013;-67
2020/12/08 05:36:38;;;;;;;37.60;17.77;;;;;;;;;;5052063;28;20401;-67
2020/12/08 05:39:03;;;;;;;32.95;16.98;;;;;;;;;;5050149;28;20079;-66
2020/12/08 05:41:30;;;;;;;35.38;17.83;;;;;;;;;;5051518;28;20389;-67
2020/12/08 05:44:01;;;;;;;33.60;16.40;;;;;;;;;;5052242;28;20013;-67
2020/12/08 05:46:29;;;;;;;31.92;16.67;;;;;;;;;;5052875;28;20024;-67
2020/12/08 05:48:58;;;;;;;33.38;16.73;;;;;;;;;;5045186;28;20044;-67
2020/12/08 05:51:24;;;;;;;31.13;17.20;;;;;;;;;;5052234;28;20017;-67
2020/12/08 05:53:54;;;;;;;29.52;15.68;;;;;;;;;;5050138;28;20053;-67
2020/12/08 05:56:19;;;;;;;30.98;14.38;;;;;;;;;;5051774;28;20036;-67
2020/12/08 05:58:53;;;;;;;29.30;15.57;;;;;;;;;;5052236;28;20021;-67
2020/12/08 06:01:18;;;;;;;30.52;14.68;;;;;;;;;;5051210;28;20906;-67
2020/12/08 06:03:52;;;;;;;28.30;14.02;;;;;;;;;;5051186;28;20025;-67
2020/12/08 06:06:17;;;;;;;28.33;15.30;;;;;;;;;;5052090;28;20354;-67
2020/12/08 06:08:43;;;;;;;28.00;13.20;;;;;;;;;;5051544;28;20017;-66
2020/12/08 06:11:08;;;;;;;31.00;15.40;;;;;;;;;;5045177;28;20279;-66
2020/12/08 06:13:34;;;;;;;28.58;14.18;;;;;;;;;;5049024;28;20020;-67
2020/12/08 06:16:00;;;;;;;27.92;14.13;;;;;;;;;;5051598;28;20081;-67
2020/12/08 06:18:29;;;;;;;24.67;12.88;;;;;;;;;;5049099;28;20010;-67
2020/12/08 06:20:54;;;;;;;28.10;14.98;;;;;;;;;;5047921;28;20032;-67
2020/12/08 06:23:20;;;;;;;25.00;12.98;;;;;;;;;;5041231;28;20044;-68
2020/12/08 06:25:45;;;;;;;18.63;9.85;;;;;;;;;;5047975;28;20475;-65
2020/12/08 06:28:10;;;;;;;13.33;7.00;;;;;;;;;;5048509;28;20021;-67
2020/12/08 06:30:38;;;;;;;26.70;11.35;;;;;;;;;;5048242;28;20313;-67
2020/12/08 06:33:04;;;;;;;23.73;11.23;;;;;;;;;;5045982;28;20041;-66
2020/12/08 06:35:33;;;;;;;22.75;12.23;;;;;;;;;;5048716;28;20021;-66
2020/12/08 06:37:59;;;;;;;23.25;9.45;;;;;;;;;;5049221;28;20595;-67
2020/12/08 06:40:25;;;;;;;13.88;7.80;;;;;;;;;;5048470;28;20033;-66
2020/12/08 06:42:50;;;;;;;24.88;13.55;;;;;;;;;;5048409;28;20078;-66
2020/12/08 06:45:17;;;;;;;20.17;8.18;;;;;;;;;;5047730;28;20039;-65
2020/12/08 06:47:43;;;;;;;19.67;10.35;;;;;;;;;;5047796;28;20108;-66
2020/12/08 06:50:20;;;;;;;12.35;4.15;;;;;;;;;;5048989;28;20544;-66
2020/12/08 06:52:58;;;;;;;20.70;10.73;;;;;;;;;;5048638;28;20609;-68
2020/12/08 06:55:24;;;;;;;25.80;10.95;;;;;;;;;;5050368;28;20066;-67
2020/12/08 06:57:49;;;;;;;15.45;7.20;;;;;;;;;;5045401;28;20017;-67
2020/12/08 07:00:14;;;;;;;23.15;10.55;;;;;;;;;;5044557;28;20514;-67
2020/12/08 07:02:58;;;;;;;21.08;10.52;;;;;;;;;;5047610;28;20021;-68
2020/12/08 07:05:26;;;;;;;21.88;10.60;;;;;;;;;;5049080;28;20044;-67
2020/12/08 07:07:51;;;;;;;28.88;11.23;;;;;;;;;;5049890;28;20032;-67
2020/12/08 07:10:17;;;;;;;19.05;9.65;;;;;;;;;;5049805;28;20137;-68
2020/12/08 07:12:48;;;;;;;22.77;11.77;;;;;;;;;;5050675;28;20060;-68
2020/12/08 07:15:14;;;;;;;19.98;10.48;;;;;;;;;;5046661;28;20055;-65
2020/12/08 07:17:39;;;;;;;21.83;11.45;;;;;;;;;;5047956;28;20473;-67
2020/12/08 07:20:05;;;;;;;23.13;10.23;;;;;;;;;;5047293;28;20689;-67
2020/12/08 07:22:40;;;;;;;24.05;12.60;;;;;;;;;;5050078;28;20013;-67
2020/12/08 07:25:06;;;;;;;13.77;5.82;;;;;;;;;;5049104;28;20048;-67
2020/12/08 07:27:33;;;;;;;11.70;6.55;;;;;;;;;;5050448;28;20029;-64
2020/12/08 07:29:58;;;;;;;16.10;9.18;;;;;;;;;;5049742;28;20029;-65
2020/12/08 07:32:27;;;;;;;16.50;8.85;;;;;;;;;;5024819;28;20028;-64
2020/12/08 07:34:52;;;;;;;20.60;10.00;;;;;;;;;;5047343;28;20052;-68
2020/12/08 07:37:17;;;;;;;18.42;10.02;;;;;;;;;;5048341;28;20480;-64
2020/12/08 07:39:42;;;;;;;19.25;9.95;;;;;;;;;;5117541;22;20074;-66
2020/12/08 07:42:07;;;;;;;23.93;10.50;;;;;;;;;;5048552;28;20033;-67
2020/12/08 07:44:33;;;;;;;18.75;10.00;;;;;;;;;;5048461;28;20547;-67
2020/12/08 07:46:59;;;;;;;17.30;9.27;;;;;;;;;;5049579;28;20013;-67
2020/12/08 07:49:24;;;;;;;22.52;11.35;;;;;;;;;;5049656;28;20052;-67
2020/12/08 07:51:50;;;;;;;20.70;11.43;;;;;;;;;;5050015;28;20059;-67
2020/12/08 07:54:15;;;;;;;22.95;11.23;;;;;;;;;;5044650;28;20560;-66
2020/12/08 07:56:40;;;;;;;22.83;12.55;;;;;;;;;;5049308;28;20161;-67
2020/12/08 07:59:06;;;;;;;24.30;10.73;;;;;;;;;;5046646;28;20044;-66
2020/12/08 08:01:41;;;;;;;30.45;12.68;;;;;;;;;;5049899;28;20634;-67
2020/12/08 08:04:07;;;;;;;32.40;14.75;;;;;;;;;;5049876;28;20029;-67
2020/12/08 08:06:32;;;;;;;24.88;13.20;;;;;;;;;;5050057;28;20017;-66
2020/12/08 08:08:58;;;;;;;42.10;14.40;;;;;;;;;;5047927;28;20040;-67
2020/12/08 08:11:23;;;;;;;31.88;13.13;;;;;;;;;;5046735;28;20048;-66
2020/12/08 08:13:49;;;;;;;24.75;13.57;;;;;;;;;;5049223;28;20487;-67
2020/12/08 08:16:16;;;;;;;24.27;12.93;;;;;;;;;;5048499;28;20528;-67
2020/12/08 08:18:41;;;;;;;28.85;13.43;;;;;;;;;;5049743;28;20113;-66
2020/12/08 08:21:07;;;;;;;24.40;12.97;;;;;;;;;;5049439;28;20179;-66
2020/12/08 08:23:32;;;;;;;22.67;12.63;;;;;;;;;;5047872;28;20260;-67
2020/12/08 08:25:58;;;;;;;26.05;14.13;;;;;;;;;;5049546;28;20033;-67
2020/12/08 08:28:23;;;;;;;24.58;13.18;;;;;;;;;;5050070;28;20054;-67
2020/12/08 08:30:49;;;;;;;27.40;14.52;;;;;;;;;;5050348;28;20037;-66
2020/12/08 08:33:14;;;;;;;29.38;15.02;;;;;;;;;;5050096;28;20024;-67
2020/12/08 08:35:39;;;;;;;26.88;13.95;;;;;;;;;;5050063;28;20120;-67
2020/12/08 08:38:04;;;;;;;27.27;13.52;;;;;;;;;;5047913;28;20019;-67
2020/12/08 08:40:29;;;;;;;27.45;14.75;;;;;;;;;;5041710;28;20497;-67
2020/12/08 08:42:55;;;;;;;35.22;14.45;;;;;;;;;;5045117;28;20036;-66
2020/12/08 08:45:20;;;;;;;31.00;14.43;;;;;;;;;;5049351;28;20025;-66
2020/12/08 08:47:45;;;;;;;35.65;15.32;;;;;;;;;;5050084;28;20074;-67
2020/12/08 08:50:11;;;;;;;32.80;15.70;;;;;;;;;;5049502;28;20041;-67
2020/12/08 08:52:36;;;;;;;32.55;15.10;;;;;;;;;;5049984;28;20024;-66
2020/12/08 08:55:01;;;;;;;31.48;15.25;;;;;;;;;;5048510;28;20555;-67
2020/12/08 08:57:26;;;;;;;39.05;15.70;;;;;;;;;;5043200;28;20270;-67
2020/12/08 08:59:51;;;;;;;34.28;16.35;;;;;;;;;;5050288;28;20079;-67
2020/12/08 09:02:17;;;;;;;37.60;16.10;;;;;;;;;;5050063;28;20013;-67
2020/12/08 09:04:42;;;;;;;26.77;14.50;;;;;;;;;;5049458;28;20017;-67
2020/12/08 09:07:07;;;;;;;30.13;16.25;;;;;;;;;;5048982;28;20091;-66
2020/12/08 09:09:34;;;;;;;26.90;14.07;;;;;;;;;;5044252;28;20102;-67
2020/12/08 09:11:59;;;;;;;26.20;14.90;;;;;;;;;;5036859;28;20032;-67
2020/12/08 09:14:27;;;;;;;30.17;15.85;;;;;;;;;;5026500;28;20424;-67
2020/12/08 09:16:52;;;;;;;29.90;15.90;;;;;;;;;;5053927;28;20049;-67
2020/12/08 09:19:17;;;;;;;27.03;14.93;;;;;;;;;;5053595;28;20126;-66
2020/12/08 09:21:43;;;;;;;28.70;14.13;;;;;;;;;;5052738;28;20264;-66
2020/12/08 09:24:08;;;;;;;35.67;14.88;;;;;;;;;;5051045;28;20676;-67
2020/12/08 09:26:33;;;;;;;27.80;14.47;;;;;;;;;;5053285;28;20043;-67
2020/12/08 09:28:58;;;;;;;26.80;14.27;;;;;;;;;;5053245;28;20259;-66
2020/12/08 09:31:23;;;;;;;26.90;15.20;;;;;;;;;;5035646;28;20024;-66
2020/12/08 09:33:51;;;;;;;28.52;13.70;;;;;;;;;;5053557;28;20114;-67
2020/12/08 09:36:17;;;;;;;24.05;12.18;;;;;;;;;;5052998;28;20143;-66
2020/12/08 09:38:42;;;;;;;28.42;12.98;;;;;;;;;;5044500;28;20045;-66
2020/12/08 09:41:07;;;;;;;33.77;15.57;;;;;;;;;;5032883;28;20067;-66
2020/12/08 09:43:32;;;;;;;30.48;15.15;;;;;;;;;;5033761;28;20351;-67
2020/12/08 09:45:57;;;;;;;25.10;13.98;;;;;;;;;;5033210;28;20040;-67
2020/12/08 09:48:23;;;;;;;25.88;12.88;;;;;;;;;;5033231;28;20022;-67
2020/12/08 09:50:48;;;;;;;31.05;15.02;;;;;;;;;;5044591;28;20469;-66
2020/12/08 09:53:13;;;;;;;27.02;13.68;;;;;;;;;;5053081;28;20056;-67
2020/12/08 09:55:38;;;;;;;25.38;12.45;;;;;;;;;;5035993;28;20033;-67
2020/12/08 09:58:03;;;;;;;24.42;11.25;;;;;;;;;;5015130;28;20021;-66
2020/12/08 10:00:29;;;;;;;22.75;12.13;;;;;;;;;;5032673;28;20431;-67
2020/12/08 10:02:54;;;;;;;26.48;11.82;;;;;;;;;;5033059;28;20010;-67
2020/12/08 10:05:19;;;;;;;26.35;13.73;;;;;;;;;;5042751;28;20473;-67
2020/12/08 10:07:45;;;;;;;24.48;12.50;;;;;;;;;;5052971;28;20420;-67
2020/12/08 10:10:10;;;;;;;22.58;12.57;;;;;;;;;;5052115;28;20027;-67
2020/12/08 10:12:36;;;;;;;26.85;12.90;;;;;;;;;;5042531;28;20025;-67
2020/12/08 10:15:01;;;;;;;22.70;12.68;;;;;;;;;;5047737;28;20075;-67
2020/12/08 10:17:26;;;;;;;21.80;12.93;;;;;;;;;;5052751;28;20108;-67
2020/12/08 10:19:51;;;;;;;22.90;12.93;;;;;;;;;;5051920;28;20264;-67
2020/12/08 10:22:16;;;;;;;21.02;10.90;;;;;;;;;;5051493;28;20219;-67
2020/12/08 10:24:42;;;;;;;18.75;10.60;;;;;;;;;;5052275;28;20027;-67
2020/12/08 10:27:07;;;;;;;26.23;12.00;;;;;;;;;;5037312;28;20029;-68
2020/12/08 10:29:33;;;;;;;21.48;10.85;;;;;;;;;;5032221;28;20382;-67
2020/12/08 10:31:58;;;;;;;18.10;8.00;;;;;;;;;;5032370;28;20044;-67
2020/12/08 10:34:23;;;;;;;19.98;9.38;;;;;;;;;;5038567;28;20389;-67
2020/12/08 10:36:48;;;;;;;14.18;7.05;;;;;;;;;;5052110;28;20025;-66
2020/12/08 10:39:14;;;;;;;17.80;7.75;;;;;;;;;;5051833;28;20017;-66
2020/12/08 10:41:39;;;;;;;20.35;10.07;;;;;;;;;;5051374;28;20439;-66
2020/12/08 10:44:08;;;;;;;18.15;8.80;;;;;;;;;;5039407;28;20070;-66
2020/12/08 10:46:33;;;;;;;16.08;9.23;;;;;;;;;;5051926;28;20470;-66
2020/12/08 10:48:58;;;;;;;17.15;10.63;;;;;;;;;;5033410;28;20028;-66
2020/12/08 10:51:24;;;;;;;19.02;9.60;;;;;;;;;;5051899;28;20032;-66
2020/12/08 10:53:49;;;;;;;17.60;8.63;;;;;;;;;;5052054;28;20047;-66
2020/12/08 10:56:24;;;;;;;22.98;10.38;;;;;;;;;;5052274;28;20115;-66
2020/12/08 10:58:49;;;;;;;15.32;7.47;;;;;;;;;;5047810;28;20017;-66
2020/12/08 11:01:25;;;;;;;17.63;9.10;;;;;;;;;;5032572;28;20032;-65
2020/12/08 11:03:50;;;;;;;17.52;8.73;;;;;;;;;;5043870;28;20026;-66
2020/12/08 11:06:34;;;;;;;13.30;6.72;;;;;;;;;;5036288;28;20025;-67
2020/12/08 11:08:59;;;;;;;9.65;4.55;;;;;;;;;;5035060;28;20109;-68
2020/12/08 11:11:25;;;;;;;12.98;6.90;;;;;;;;;;5033798;28;20160;-66
2020/12/08 11:13:51;;;;;;;11.65;6.72;;;;;;;;;;5032056;28;20044;-66
2020/12/08 11:16:17;;;;;;;13.98;6.88;;;;;;;;;;5027667;28;20029;-66
2020/12/08 11:18:42;;;;;;;11.60;6.68;;;;;;;;;;5034305;28;20091;-66
2020/12/08 11:21:07;;;;;;;10.27;5.70;;;;;;;;;;5050046;28;20017;-66
2020/12/08 11:23:32;;;;;;;13.32;7.80;;;;;;;;;;5051115;28;20465;-66
2020/12/08 11:25:58;;;;;;;12.68;7.55;;;;;;;;;;5051268;28;20029;-67
2020/12/08 11:28:23;;;;;;;13.27;8.20;;;;;;;;;;5047280;28;20025;-66
2020/12/08 11:30:48;;;;;;;10.55;5.32;;;;;;;;;;5031093;28;20033;-66
2020/12/08 11:33:13;;;;;;;15.32;6.55;;;;;;;;;;5030849;28;20021;-66
2020/12/08 11:35:38;;;;;;;8.35;4.88;;;;;;;;;;5040016;28;20029;-66
2020/12/08 11:38:04;;;;;;;9.57;5.25;;;;;;;;;;5049989;28;20021;-66
2020/12/08 11:40:29;;;;;;;13.55;7.30;;;;;;;;;;5049659;28;20031;-66
2020/12/08 11:42:54;;;;;;;14.15;7.32;;;;;;;;;;5048914;28;20071;-66
2020/12/08 11:45:19;;;;;;;13.02;6.45;;;;;;;;;;5032987;28;20454;-67
2020/12/08 11:47:44;;;;;;;10.80;6.88;;;;;;;;;;5032340;28;20020;-66
2020/12/08 11:50:11;;;;;;;12.68;7.07;;;;;;;;;;5050063;28;20021;-66
2020/12/08 11:52:36;;;;;;;10.68;6.57;;;;;;;;;;5045476;28;20112;-66
2020/12/08 11:55:06;;;;;;;11.27;6.15;;;;;;;;;;5049706;28;20109;-66
2020/12/08 11:57:31;;;;;;;13.75;6.80;;;;;;;;;;5049815;28;20377;-66
2020/12/08 11:59:56;;;;;;;11.45;6.68;;;;;;;;;;5049766;28;20017;-66
2020/12/08 12:02:21;;;;;;;11.88;6.97;;;;;;;;;;5049991;28;20031;-66
2020/12/08 12:04:46;;;;;;;11.70;6.70;;;;;;;;;;5047902;28;20028;-66
2020/12/08 12:07:11;;;;;;;10.47;6.60;;;;;;;;;;5049181;28;20746;-66
2020/12/08 12:09:37;;;;;;;12.63;7.63;;;;;;;;;;5049525;28;20267;-66
2020/12/08 12:12:02;;;;;;;9.98;6.32;;;;;;;;;;5049817;28;20826;-66
2020/12/08 12:14:27;;;;;;;14.10;7.23;;;;;;;;;;5049520;28;20501;-66
2020/12/08 12:16:52;;;;;;;12.17;7.07;;;;;;;;;;5048214;28;20263;-66
2020/12/08 12:19:17;;;;;;;10.95;6.43;;;;;;;;;;5048223;28;20715;-66
2020/12/08 12:21:43;;;;;;;11.40;5.22;;;;;;;;;;5049433;28;20024;-66
2020/12/08 12:24:08;;;;;;;13.57;6.97;;;;;;;;;;5048178;28;20400;-66
2020/12/08 12:26:33;;;;;;;10.97;5.77;;;;;;;;;;5049805;28;20106;-66
2020/12/08 12:28:58;;;;;;;12.63;6.03;;;;;;;;;;5045421;28;20259;-66
2020/12/08 12:31:23;;;;;;;10.83;5.20;;;;;;;;;;5049720;28;20033;-66
2020/12/08 12:33:49;;;;;;;8.88;4.43;;;;;;;;;;5047845;28;20623;-66
2020/12/08 12:36:14;;;;;;;10.82;6.35;;;;;;;;;;5048819;28;20017;-66
2020/12/08 12:38:39;;;;;;;15.82;8.07;;;;;;;;;;5049517;28;20021;-66
2020/12/08 12:41:04;;;;;;;10.02;5.68;;;;;;;;;;5047768;28;20017;-67
2020/12/08 12:43:29;;;;;;;12.77;6.68;;;;;;;;;;5049135;28;20517;-66
2020/12/08 12:45:55;;;;;;;16.70;8.47;;;;;;;;;;5046447;28;20035;-66
2020/12/08 12:48:20;;;;;;;11.68;6.38;;;;;;;;;;5053377;28;20609;-66
2020/12/08 12:50:45;;;;;;;14.27;7.13;;;;;;;;;;5053170;28;20378;-66
2020/12/08 12:53:10;;;;;;;11.73;6.93;;;;;;;;;;5053080;28;20059;-66
2020/12/08 12:55:36;;;;;;;14.82;7.05;;;;;;;;;;5053614;28;20029;-66
2020/12/08 12:58:01;;;;;;;17.55;6.05;;;;;;;;;;5052965;28;20033;-66
2020/12/08 13:00:26;;;;;;;12.10;6.30;;;;;;;;;;5053069;28;20017;-66
2020/12/08 13:02:52;;;;;;;7.78;4.35;;;;;;;;;;5053431;28;20028;-66
2020/12/08 13:05:17;;;;;;;13.77;6.88;;;;;;;;;;5048833;28;20031;-66
2020/12/08 13:07:42;;;;;;;9.50;5.70;;;;;;;;;;5052292;28;20286;-66
2020/12/08 13:10:07;;;;;;;11.95;7.53;;;;;;;;;;5052098;28;20028;-66
2020/12/08 13:12:32;;;;;;;11.70;7.63;;;;;;;;;;5052697;28;20063;-66
2020/12/08 13:14:57;;;;;;;11.50;6.87;;;;;;;;;;5053165;28;20283;-66
2020/12/08 13:17:23;;;;;;;17.63;7.82;;;;;;;;;;5053271;28;20498;-66
2020/12/08 13:19:48;;;;;;;13.45;7.30;;;;;;;;;;5052077;28;20079;-65
2020/12/08 13:22:13;;;;;;;12.67;6.83;;;;;;;;;;5051100;28;20025;-65
2020/12/08 13:24:39;;;;;;;15.07;7.55;;;;;;;;;;5051859;28;20260;-65
2020/12/08 13:27:04;;;;;;;11.40;7.13;;;;;;;;;;5049467;28;20062;-66
2020/12/08 13:29:29;;;;;;;13.75;6.88;;;;;;;;;;5034808;28;20816;-66
2020/12/08 13:31:54;;;;;;;11.48;6.45;;;;;;;;;;5052377;28;20024;-66
2020/12/08 13:34:19;;;;;;;12.40;7.28;;;;;;;;;;5052708;28;20397;-66
2020/12/08 13:36:45;;;;;;;18.50;8.40;;;;;;;;;;5048598;28;20112;-66
2020/12/08 13:39:10;;;;;;;11.98;6.93;;;;;;;;;;5046852;28;20036;-66
2020/12/08 13:41:36;;;;;;;14.98;7.40;;;;;;;;;;5069102;22;20041;-65
2020/12/08 13:44:01;;;;;;;13.18;7.35;;;;;;;;;;5045690;28;20021;-66
2020/12/08 13:46:26;;;;;;;10.75;6.10;;;;;;;;;;5037143;28;20021;-69
2020/12/08 13:48:51;;;;;;;12.88;6.78;;;;;;;;;;5049269;28;20032;-67
2020/12/08 13:51:17;;;;;;;12.50;7.40;;;;;;;;;;5044408;28;20150;-65
2020/12/08 13:53:42;;;;;;;12.93;7.38;;;;;;;;;;5061116;28;20033;-67
2020/12/08 13:56:07;;;;;;;10.43;6.57;;;;;;;;;;5068965;28;20016;-67
2020/12/08 13:58:33;;;;;;;11.32;6.90;;;;;;;;;;5057607;28;20025;-66
2020/12/08 14:00:58;;;;;;;10.60;6.70;;;;;;;;;;5053621;28;20079;-66
2020/12/08 14:03:23;;;;;;;14.20;7.95;;;;;;;;;;5053989;28;20059;-68
2020/12/08 14:05:52;;;;;;;13.37;6.93;;;;;;;;;;5041250;28;20334;-68
2020/12/08 14:08:17;;;;;;;12.23;7.75;;;;;;;;;;5053675;28;20271;-68
2020/12/08 14:10:43;;;;;;;10.17;6.20;;;;;;;;;;5057524;28;20497;-65
2020/12/08 14:13:08;;;;;;;12.03;7.37;;;;;;;;;;5065275;28;20259;-67